createdAt,value
2022-11-16T00:01:49.579Z,11.47
2022-11-16T00:05:08.783Z,11.07
2022-11-16T00:08:05.970Z,11.40
2022-11-16T00:11:06.975Z,11.55
2022-11-16T00:13:55.607Z,11.72
2022-11-16T00:16:44.539Z,11.77
2022-11-16T00:19:33.042Z,11.82
2022-11-16T00:22:21.574Z,11.74
2022-11-16T00:25:12.862Z,11.76
2022-11-16T00:28:01.199Z,11.38
2022-11-16T00:31:02.516Z,11.62
2022-11-16T00:33:52.645Z,11.57
2022-11-16T00:36:40.923Z,11.29
2022-11-16T00:39:29.043Z,11.26
2022-11-16T00:42:19.868Z,11.15
2022-11-16T00:45:08.730Z,11.02
2022-11-16T00:48:00.455Z,10.68
2022-11-16T00:50:49.292Z,10.61
2022-11-16T00:53:39.299Z,10.61
2022-11-16T00:56:27.541Z,10.94
2022-11-16T00:59:15.524Z,10.91
2022-11-16T01:02:03.666Z,10.90
2022-11-16T01:04:51.810Z,10.83
2022-11-16T01:07:41.286Z,10.62
2022-11-16T01:10:30.334Z,10.78
2022-11-16T01:13:18.511Z,10.63
2022-11-16T01:16:06.812Z,10.55
2022-11-16T01:18:55.698Z,10.17
2022-11-16T01:21:43.632Z,10.12
2022-11-16T01:24:32.127Z,9.97
2022-11-16T01:27:20.065Z,9.99
2022-11-16T01:30:11.821Z,10.05
2022-11-16T01:32:59.893Z,9.88
2022-11-16T01:35:47.782Z,10.10
2022-11-16T01:38:36.226Z,10.12
2022-11-16T01:41:26.228Z,10.06
2022-11-16T01:44:32.510Z,9.88
2022-11-16T01:47:20.487Z,9.90
2022-11-16T01:50:23.810Z,9.87
2022-11-16T01:53:14.786Z,9.80
2022-11-16T01:56:02.896Z,9.77
2022-11-16T01:58:51.533Z,9.71
2022-11-16T02:01:39.761Z,9.64
2022-11-16T02:04:28.188Z,9.61
2022-11-16T02:08:12.354Z,9.77
2022-11-16T02:11:27.646Z,9.94
2022-11-16T02:14:35.455Z,9.99
2022-11-16T02:17:41.766Z,9.90
2022-11-16T02:21:06.901Z,9.84
2022-11-16T02:24:20.432Z,9.98
2022-11-16T02:27:36.148Z,9.88
2022-11-16T02:30:24.371Z,9.95
2022-11-16T02:33:21.310Z,9.95
2022-11-16T02:36:14.613Z,9.82
2022-11-16T02:39:10.308Z,9.82
2022-11-16T02:41:59.850Z,10.00
2022-11-16T02:44:51.856Z,9.89
2022-11-16T02:47:41.972Z,9.78
2022-11-16T02:50:31.184Z,9.82
2022-11-16T02:53:22.223Z,9.78
2022-11-16T02:56:13.775Z,9.59
2022-11-16T02:59:02.085Z,9.62
2022-11-16T03:02:20.270Z,9.60
2022-11-16T03:05:15.877Z,9.50
2022-11-16T03:08:20.031Z,9.47
2022-11-16T03:11:28.879Z,9.41
2022-11-16T03:14:21.039Z,9.55
2022-11-16T03:17:17.856Z,9.51
2022-11-16T03:20:14.210Z,9.58
2022-11-16T03:23:07.591Z,9.54
2022-11-16T03:25:58.321Z,9.49
2022-11-16T03:29:13.431Z,9.45
2022-11-16T03:32:21.214Z,9.47
2022-11-16T03:35:48.627Z,9.37
2022-11-16T03:38:39.970Z,9.42
2022-11-16T03:41:31.115Z,9.53
2022-11-16T03:44:20.262Z,9.71
2022-11-16T03:47:08.152Z,9.81
2022-11-16T03:49:56.001Z,9.83
2022-11-16T03:52:43.962Z,9.87
2022-11-16T03:55:31.999Z,9.67
2022-11-16T03:58:20.019Z,9.59
2022-11-16T04:01:08.517Z,9.51
2022-11-16T04:03:56.393Z,9.31
2022-11-16T04:07:02.886Z,9.32
2022-11-16T04:10:10.001Z,9.38
2022-11-16T04:13:18.377Z,9.38
2022-11-16T04:16:28.000Z,9.29
2022-11-16T04:19:34.423Z,9.67
2022-11-16T04:22:47.419Z,9.71
2022-11-16T04:25:39.328Z,9.77
2022-11-16T04:28:32.283Z,9.69
2022-11-16T04:32:00.624Z,9.74
2022-11-16T04:35:07.250Z,9.67
2022-11-16T04:37:57.597Z,9.60
2022-11-16T04:40:45.499Z,9.60
2022-11-16T04:43:33.555Z,9.73
2022-11-16T04:46:39.899Z,9.71
2022-11-16T04:49:27.925Z,9.77
2022-11-16T04:52:16.311Z,9.71
2022-11-16T04:55:04.833Z,9.80
2022-11-16T04:57:53.036Z,9.76
2022-11-16T05:00:41.112Z,9.72
2022-11-16T05:03:28.985Z,9.80
2022-11-16T05:06:17.531Z,9.89
2022-11-16T05:09:05.899Z,9.91
2022-11-16T05:11:53.794Z,9.84
2022-11-16T05:14:42.731Z,9.97
2022-11-16T05:17:31.043Z,9.90
2022-11-16T05:20:37.660Z,9.82
2022-11-16T05:23:44.324Z,9.78
2022-11-16T05:26:32.166Z,9.90
2022-11-16T05:29:20.083Z,9.76
2022-11-16T05:32:09.891Z,9.75
2022-11-16T05:34:58.103Z,9.71
2022-11-16T05:37:45.885Z,9.78
2022-11-16T05:40:34.185Z,9.75
2022-11-16T05:43:22.273Z,9.74
2022-11-16T05:46:10.233Z,9.75
2022-11-16T05:49:01.489Z,9.67
2022-11-16T05:51:49.699Z,9.69
2022-11-16T05:54:37.613Z,9.68
2022-11-16T05:57:25.726Z,9.70
2022-11-16T06:00:17.336Z,9.70
2022-11-16T06:03:05.538Z,9.70
2022-11-16T06:05:56.325Z,9.80
2022-11-16T06:08:44.333Z,9.76
2022-11-16T06:11:36.155Z,9.81
2022-11-16T06:14:24.568Z,9.80
2022-11-16T06:17:14.612Z,9.74
2022-11-16T06:20:03.529Z,9.72
2022-11-16T06:22:51.385Z,9.80
2022-11-16T06:25:39.912Z,9.79
2022-11-16T06:28:28.790Z,9.80
2022-11-16T06:31:16.710Z,9.71
2022-11-16T06:34:17.330Z,9.69
2022-11-16T06:37:07.521Z,9.67
2022-11-16T06:39:55.587Z,9.70
2022-11-16T06:42:47.185Z,9.70
2022-11-16T06:46:08.020Z,9.61
2022-11-16T06:49:09.818Z,9.59
2022-11-16T06:52:03.605Z,9.66
2022-11-16T06:54:57.214Z,9.60
2022-11-16T06:57:50.521Z,9.73
2022-11-16T07:00:38.868Z,9.68
2022-11-16T07:03:31.503Z,9.74
2022-11-16T07:06:22.016Z,9.81
2022-11-16T07:09:28.194Z,9.74
2022-11-16T07:12:28.936Z,9.73
2022-11-16T07:15:26.212Z,9.68
2022-11-16T07:18:14.922Z,9.73
2022-11-16T07:21:24.384Z,9.71
2022-11-16T07:27:15.503Z,9.74
2022-11-16T07:30:17.247Z,9.74
2022-11-16T07:33:05.471Z,9.84
2022-11-16T07:36:26.656Z,9.96
2022-11-16T07:39:22.638Z,9.81
2022-11-16T07:42:12.872Z,9.97
2022-11-16T07:45:01.194Z,10.03
2022-11-16T07:48:06.375Z,10.12
2022-11-16T07:51:39.850Z,9.95
2022-11-16T08:05:59.677Z,10.57
2022-11-16T08:09:22.773Z,10.68
2022-11-16T08:20:45.274Z,10.86
2022-11-16T08:24:33.886Z,10.58
2022-11-16T08:28:29.879Z,10.38
2022-11-16T08:52:25.486Z,11.47
2022-11-16T13:36:59.516Z,11.89
2022-11-16T13:47:26.840Z,11.45
2022-11-16T18:18:06.352Z,11.72
2022-11-16T18:21:30.756Z,11.15
